This is the latest recevied weather packets stored in our database for station/object SP7QPD-1. If no packets are shown the sender has not sent any weather packets the latest 1 day(s).
| Time | Temp. | Humidity | Pressure | Rain* | Wind** | Luminosity | Snow |
|---|---|---|---|---|---|---|---|
| 1836274479 | 12.22° C | 10% | 1021.5 hPa | 0 mm | 25.03 m/s, 292° | - | - |
| 1836274329 | 12.22° C | 10% | 1021.4 hPa | 0 mm | 25.03 m/s, 292° | - | - |
| 1836273879 | 12.22° C | 10% | 1021.5 hPa | 0 mm | 25.03 m/s, 292° | - | - |
| 1778019201 | 13.33° C | 58% | 1003.4 hPa | 0 mm | 25.03 m/s, 0° | - | - |
| 1778018601 | 13.33° C | 57% | 1003.5 hPa | 0 mm | 25.03 m/s, 0° | - | - |
| 1778018001 | 13.33° C | 56% | 1003.4 hPa | 0 mm | 25.03 m/s, 0° | - | - |
| 1778017401 | 13.33° C | 56% | 1003.4 hPa | 0 mm | 25.03 m/s, 0° | - | - |
| 1778016801 | 13.89° C | 55% | 1003.3 hPa | 0 mm | 25.03 m/s, 45° | - | - |
| 1778016201 | 13.89° C | 55% | 1003.4 hPa | 0 mm | 25.03 m/s, 0° | - | - |
| 1778015601 | 13.89° C | 54% | 1003.3 hPa | 0 mm | 25.03 m/s, 45° | - | - |
| 1778015001 | 13.89° C | 53% | 1003.3 hPa | 0 mm | 25.03 m/s, 45° | - | - |
| 1778014401 | 14.44° C | 52% | 1003.3 hPa | 0 mm | 25.03 m/s, 0° | - | - |
| 1778013800 | 14.44° C | 51% | 1003.3 hPa | 0 mm | 25.03 m/s, 0° | - | - |
| 1778013200 | 15° C | 51% | 1003.3 hPa | 0 mm | 25.03 m/s, 0° | - | - |
| 1778012600 | 15° C | 50% | 1003.2 hPa | 0 mm | 25.03 m/s, 45° | - | - |
| 1778012000 | 15° C | 49% | 1003.1 hPa | 0 mm | 25.03 m/s, 0° | - | - |
| 1778011400 | 15.56° C | 49% | 1003.1 hPa | 0 mm | 25.03 m/s, 0° | - | - |
| 1778010800 | 16.11° C | 48% | 1003.2 hPa | 0 mm | 25.03 m/s, 0° | - | - |
| 1778010200 | 16.67° C | 47% | 1003.2 hPa | 0 mm | 25.03 m/s, 45° | - | - |
| 1778009600 | 16.67° C | 46% | 1003.1 hPa | 0 mm | 25.03 m/s, 0° | - | - |
| 1778009000 | 17.22° C | 46% | 1003.1 hPa | 0 mm | 25.03 m/s, 0° | - | - |
| 1778008400 | 17.78° C | 46% | 1003.1 hPa | 0 mm | 25.03 m/s, 0° | - | - |
| 1778007800 | 17.78° C | 45% | 1003.1 hPa | 0 mm | 25.03 m/s, 0° | - | - |
| 1778007200 | 18.33° C | 44% | 1003 hPa | 0 mm | 25.03 m/s, 0° | - | - |
| 1778006600 | 18.89° C | 43% | 1003.2 hPa | 0 mm | 25.03 m/s, 0° | - | - |
* Rain latest hour (hover to see other rain measurements)
** Current wind speed in m/s (hover to see current wind gust speed)